Pagrindinis puslapis
METAR-TAF:

METAR-TAF

Oro uostai :

Čongčingas, Kinija

platuma: 29-31N, ilguma: 106-29E, Aukštis: 351 m

Dabartinis oras

Ataskaita buvo paskelbta 1 valandą ir 3 minutes, ne 04:00 UTC
Vėjas 4 kt iš Pietryčių
Temperatūra 20°C
Drėgmė 100%
Slėgis 1021 hPa
Matomumas: 6000 m
Mažai debesys ne aukštis 200 ft
Išsisklaidę debesys ne aukštis 800 ft
Su prošvaistėmis ne aukštis 1700 ft
Apsiniaukę ne aukštis 4300 ft

METAR: ZUCK 180400Z 14002MPS 6000 FEW002 SCT008 BKN017 OVC043 20/20 Q1021 NOSIG

Laikas: 13:03 (05:03 UTC)

Prognozė

Ataskaita buvo paskelbta 9 valandos ir 54 minutes, ne 19:09 UTC
Prognozė galioja nuo 18 metu 00 UTC su 18 metu 24 UTC
Vėjas 6 kt iš Vakarų/Šiaurės Vakarų
Matomumas: 3500 m
Mažai debesys ne aukštis 700 ft
Išsisklaidę debesys ne aukštis 1500 ft
Apsiniaukę ne aukštis 4000 ft
lietus, rūkana
Tapsmas
nuo 18 metu 03 UTC su 18 metu 04 UTC
Matomumas: 5000 m
Išsisklaidę debesys ne aukštis 2000 ft
rūkana

TAF: ZUCK 171909Z 1800/1824 30003MPS 3500 -SHRA BR FEW007 SCT015 OVC040 TX22/1808Z TN19/1822Z BECMG 1803/1804 5000 BR SCT020

Orai ataskaitas ir orų prognozės (METAR, TAF).

turimą stotys yra geltonos ir raudonos taškus žemėlapyje.

Perkelti pele per norėdami pamatyti stoties vardą.

Tada spustelėkite, norėdami matyti oro stebėjimo ir prognozės.

Norėdami pakeisti žemėlapį: spustelėkite ant žalios mygtukų su juodo kryžiaus žemyn,; žalią mygtuką su brūkšneliu, jei norite nutolinti; arba žalių rodyklių gretimoms žemėlapius.


METAR-TAF: